createdAt,value
2017-11-30T00:00:55.281Z,38.08
2017-11-30T00:03:22.995Z,38.95
2017-11-30T00:05:50.629Z,33.05
2017-11-30T00:08:19.284Z,41.28
2017-11-30T00:10:46.919Z,39.38
2017-11-30T00:13:14.693Z,39.00
2017-11-30T00:15:42.282Z,37.00
2017-11-30T00:18:10.659Z,46.08
2017-11-30T00:20:38.363Z,35.58
2017-11-30T00:23:05.994Z,38.80
2017-11-30T00:25:34.949Z,43.95
2017-11-30T00:28:02.729Z,46.50
2017-11-30T00:30:30.341Z,45.33
2017-11-30T00:32:58.906Z,49.65
2017-11-30T00:35:26.553Z,45.30
2017-11-30T00:37:54.162Z,55.35
2017-11-30T00:40:22.657Z,45.42
2017-11-30T00:43:02.171Z,50.95
2017-11-30T00:45:30.867Z,55.17
2017-11-30T00:47:58.502Z,49.60
2017-11-30T00:50:26.117Z,55.25
2017-11-30T00:52:53.808Z,54.53
2017-11-30T00:55:21.389Z,49.42
2017-11-30T00:57:49.230Z,54.45
2017-11-30T01:00:16.825Z,54.08
2017-11-30T01:02:44.407Z,49.53
2017-11-30T01:05:12.037Z,48.85
2017-11-30T01:07:39.635Z,42.72
2017-11-30T01:10:07.202Z,40.95
2017-11-30T01:12:34.816Z,45.30
2017-11-30T01:15:02.410Z,48.53
2017-11-30T01:17:31.497Z,53.97
2017-11-30T01:19:59.105Z,53.80
2017-11-30T01:22:26.665Z,49.38
2017-11-30T01:24:54.222Z,49.13
2017-11-30T01:27:21.769Z,53.35
2017-11-30T01:29:49.344Z,46.35
2017-11-30T01:32:16.903Z,40.67
2017-11-30T01:34:44.760Z,41.08
2017-11-30T01:37:14.272Z,41.25
2017-11-30T01:39:41.900Z,38.65
2017-11-30T01:42:10.299Z,44.92
2017-11-30T01:44:37.861Z,43.40
2017-11-30T01:47:07.196Z,40.55
2017-11-30T01:49:34.767Z,39.60
2017-11-30T01:52:02.412Z,45.80
2017-11-30T01:54:29.980Z,44.90
2017-11-30T01:56:57.613Z,48.20
2017-11-30T01:59:25.947Z,47.05
2017-11-30T02:01:53.568Z,42.85
2017-11-30T02:04:22.570Z,46.25
2017-11-30T02:06:50.224Z,38.60
2017-11-30T02:09:18.598Z,53.47
2017-11-30T02:11:46.186Z,38.95
2017-11-30T02:14:13.823Z,37.45
2017-11-30T02:16:44.993Z,35.08
2017-11-30T02:19:12.855Z,33.25
2017-11-30T02:21:41.695Z,33.08
2017-11-30T02:24:09.354Z,37.15
2017-11-30T02:26:37.045Z,33.30
2017-11-30T02:29:05.520Z,32.95
2017-11-30T02:31:33.790Z,33.35
2017-11-30T02:34:01.740Z,35.63
2017-11-30T02:36:30.432Z,32.38
2017-11-30T02:38:59.509Z,26.83
2017-11-30T02:41:27.217Z,27.37
2017-11-30T02:43:55.231Z,26.33
2017-11-30T02:46:23.063Z,26.90
2017-11-30T02:48:51.014Z,28.50
2017-11-30T02:51:22.364Z,29.85
2017-11-30T02:53:50.136Z,30.37
2017-11-30T02:56:19.260Z,25.98
2017-11-30T02:58:47.096Z,31.60
2017-11-30T03:01:14.818Z,31.52
2017-11-30T03:03:42.435Z,33.25
2017-11-30T03:06:11.705Z,29.40
2017-11-30T03:08:39.539Z,30.60
2017-11-30T03:11:07.164Z,25.00
2017-11-30T03:13:37.584Z,27.50
2017-11-30T03:16:06.297Z,23.95
2017-11-30T03:18:34.720Z,24.42
2017-11-30T03:21:02.572Z,28.23
2017-11-30T03:23:30.139Z,21.20
2017-11-30T03:25:57.773Z,24.58
2017-11-30T03:28:26.827Z,20.62
2017-11-30T03:30:54.447Z,18.05
2017-11-30T03:33:22.791Z,17.37
2017-11-30T03:35:50.486Z,16.50
2017-11-30T03:38:19.067Z,17.45
2017-11-30T03:40:46.731Z,17.92
2017-11-30T03:43:14.461Z,19.75
2017-11-30T03:45:42.331Z,21.83
2017-11-30T03:48:09.974Z,29.63
2017-11-30T03:50:37.765Z,17.60
2017-11-30T03:53:05.572Z,22.05
2017-11-30T03:55:34.029Z,22.33
2017-11-30T03:58:01.834Z,21.87
2017-11-30T04:00:29.486Z,22.08
2017-11-30T04:02:57.265Z,21.27
2017-11-30T04:05:24.935Z,25.95
2017-11-30T04:07:52.600Z,23.42
2017-11-30T04:10:20.226Z,21.65
2017-11-30T04:12:47.879Z,22.75
2017-11-30T04:15:15.852Z,21.95
2017-11-30T04:17:43.684Z,21.87
2017-11-30T04:20:11.268Z,26.05
2017-11-30T04:22:39.157Z,25.02
2017-11-30T04:25:06.816Z,23.38
2017-11-30T04:27:34.624Z,23.27
2017-11-30T04:30:02.223Z,17.60
2017-11-30T04:32:29.849Z,20.17
2017-11-30T04:34:57.522Z,24.35
2017-11-30T04:37:25.070Z,24.48
2017-11-30T04:39:52.658Z,20.10
2017-11-30T04:42:20.207Z,21.12
2017-11-30T04:44:47.823Z,20.55
2017-11-30T04:47:16.240Z,21.77
2017-11-30T04:49:43.875Z,19.27
2017-11-30T04:52:12.240Z,23.73
2017-11-30T04:54:39.845Z,18.27
2017-11-30T04:57:07.463Z,21.85
2017-11-30T04:59:35.089Z,21.40
2017-11-30T05:02:02.689Z,20.77
2017-11-30T05:04:30.337Z,22.00
2017-11-30T05:06:57.923Z,28.05
2017-11-30T05:09:26.608Z,22.75
2017-11-30T05:11:54.214Z,16.50
2017-11-30T05:14:22.821Z,24.02
2017-11-30T05:16:50.406Z,20.60
2017-11-30T05:19:17.997Z,19.98
2017-11-30T05:21:45.600Z,18.92
2017-11-30T05:24:14.059Z,18.23
2017-11-30T05:26:41.632Z,18.10
2017-11-30T05:29:09.198Z,20.50
2017-11-30T05:31:36.816Z,18.77
2017-11-30T05:34:05.448Z,20.17
2017-11-30T05:36:33.075Z,17.73
2017-11-30T05:39:00.675Z,19.65
2017-11-30T05:41:28.301Z,20.58
2017-11-30T05:43:56.142Z,16.52
2017-11-30T05:46:24.717Z,21.67
2017-11-30T05:48:53.128Z,18.92
2017-11-30T05:51:21.054Z,20.92
2017-11-30T05:53:48.758Z,22.23
2017-11-30T05:56:16.470Z,22.77
2017-11-30T05:58:44.097Z,15.88
2017-11-30T06:01:12.461Z,24.23
2017-11-30T06:03:40.357Z,20.88
2017-11-30T06:06:07.995Z,19.90
2017-11-30T06:08:36.473Z,26.73
2017-11-30T06:11:07.116Z,18.55
2017-11-30T06:13:35.801Z,18.48
2017-11-30T06:16:04.393Z,21.58
2017-11-30T06:18:31.960Z,18.67
2017-11-30T06:21:00.315Z,21.17
2017-11-30T06:23:28.493Z,24.27
2017-11-30T06:25:57.827Z,25.05
2017-11-30T06:28:28.785Z,20.00
2017-11-30T06:31:26.418Z,20.77
2017-11-30T06:33:54.993Z,19.33
2017-11-30T06:36:24.841Z,15.75
2017-11-30T06:38:52.452Z,18.83
2017-11-30T06:41:20.610Z,18.40
2017-11-30T06:43:48.236Z,17.27
2017-11-30T06:46:17.825Z,14.25
2017-11-30T06:48:45.936Z,17.33
2017-11-30T06:51:14.532Z,14.95
2017-11-30T06:53:42.167Z,18.35
2017-11-30T06:56:09.780Z,21.08
2017-11-30T06:58:37.364Z,22.35
2017-11-30T07:01:04.941Z,19.00
2017-11-30T07:03:32.507Z,15.43
2017-11-30T07:06:00.127Z,15.10
2017-11-30T07:08:27.720Z,18.95
2017-11-30T07:10:55.433Z,14.57
2017-11-30T07:13:23.926Z,18.12
2017-11-30T07:15:51.751Z,17.35
2017-11-30T07:18:19.335Z,16.83
2017-11-30T07:20:46.981Z,17.92
2017-11-30T07:23:14.640Z,17.45
2017-11-30T07:25:43.074Z,15.82
2017-11-30T07:28:10.665Z,16.35
2017-11-30T07:30:38.439Z,14.70
2017-11-30T07:33:06.049Z,16.67
2017-11-30T07:35:33.753Z,16.10
2017-11-30T07:38:01.366Z,19.48
2017-11-30T07:40:29.173Z,20.70
2017-11-30T07:42:57.542Z,16.83
2017-11-30T07:45:25.209Z,14.73
2017-11-30T07:47:53.893Z,13.50
2017-11-30T07:50:21.535Z,16.35
2017-11-30T07:52:49.227Z,14.43
2017-11-30T07:55:16.999Z,14.30
2017-11-30T07:57:44.621Z,13.48
2017-11-30T08:00:13.255Z,14.10
2017-11-30T08:02:42.149Z,17.45
2017-11-30T08:05:09.754Z,15.80
2017-11-30T08:07:38.160Z,15.38
2017-11-30T08:10:05.725Z,14.75
2017-11-30T08:12:33.365Z,15.00
2017-11-30T08:15:01.790Z,15.07
2017-11-30T08:17:29.373Z,10.05
2017-11-30T08:19:56.932Z,13.23
2017-11-30T08:22:24.501Z,13.88
2017-11-30T08:24:52.135Z,14.82
2017-11-30T08:27:19.742Z,10.55
2017-11-30T08:29:47.302Z,12.55
2017-11-30T08:32:14.863Z,14.98
2017-11-30T08:34:43.484Z,14.18
2017-11-30T08:37:13.250Z,12.98
2017-11-30T08:39:41.634Z,12.63
2017-11-30T08:42:09.229Z,10.57
2017-11-30T08:44:36.789Z,11.55
2017-11-30T08:47:04.411Z,12.05
2017-11-30T08:49:31.997Z,11.93
2017-11-30T08:51:59.654Z,11.65
2017-11-30T08:54:27.226Z,12.15
2017-11-30T08:56:54.818Z,11.45
2017-11-30T08:59:22.398Z,10.98
2017-11-30T09:01:50.967Z,13.00
2017-11-30T09:04:18.568Z,15.35
2017-11-30T09:06:46.921Z,10.27
2017-11-30T09:09:14.511Z,13.68
2017-11-30T09:11:43.635Z,14.65
2017-11-30T09:14:11.827Z,10.48
2017-11-30T09:16:39.424Z,14.05
2017-11-30T09:19:06.988Z,15.27
2017-11-30T09:21:34.584Z,12.10
2017-11-30T09:24:02.899Z,16.48
2017-11-30T09:26:30.452Z,12.93
2017-11-30T09:28:58.013Z,10.30
2017-11-30T09:31:25.591Z,13.02
2017-11-30T09:33:53.217Z,9.82
2017-11-30T09:36:20.775Z,12.93
2017-11-30T09:38:48.354Z,11.30
2017-11-30T09:41:16.692Z,14.20
2017-11-30T09:43:44.335Z,13.98
2017-11-30T09:46:11.891Z,15.05
2017-11-30T09:48:39.604Z,11.23
2017-11-30T09:51:07.234Z,8.80
2017-11-30T09:53:34.816Z,12.30
2017-11-30T09:56:02.415Z,11.23
2017-11-30T09:58:30.076Z,12.80
2017-11-30T10:00:57.717Z,12.60
2017-11-30T10:03:25.343Z,12.32
2017-11-30T10:05:53.675Z,10.65
2017-11-30T10:08:21.213Z,11.43
2017-11-30T10:10:48.813Z,11.68
2017-11-30T10:13:16.371Z,10.05
2017-11-30T10:15:44.561Z,9.95
2017-11-30T10:18:12.119Z,11.15
2017-11-30T10:20:39.676Z,13.13
2017-11-30T10:23:07.266Z,7.60
2017-11-30T10:25:34.824Z,11.10
2017-11-30T10:28:03.947Z,11.12
2017-11-30T10:30:32.261Z,10.75
2017-11-30T10:32:59.854Z,8.30
2017-11-30T10:35:27.888Z,17.25
2017-11-30T10:37:55.477Z,7.90
2017-11-30T10:40:23.059Z,13.07
2017-11-30T10:42:50.671Z,10.93
2017-11-30T10:45:18.250Z,11.80
2017-11-30T10:47:45.818Z,10.35
2017-11-30T10:50:13.410Z,12.80
2017-11-30T10:52:41.047Z,11.63
2017-11-30T10:55:08.633Z,10.52
2017-11-30T10:57:36.189Z,11.40
2017-11-30T11:00:03.779Z,11.73
2017-11-30T11:02:31.661Z,10.20
2017-11-30T11:04:59.223Z,11.18
2017-11-30T11:07:26.799Z,11.75
2017-11-30T11:09:54.495Z,12.45
2017-11-30T11:12:22.097Z,8.70
2017-11-30T11:14:49.684Z,11.80
2017-11-30T11:17:17.266Z,14.07
2017-11-30T11:19:44.849Z,11.30
2017-11-30T11:22:12.447Z,8.23
2017-11-30T11:24:39.978Z,12.07
2017-11-30T11:27:07.598Z,9.63
2017-11-30T11:29:35.152Z,9.23
2017-11-30T11:32:02.715Z,12.35
2017-11-30T11:34:30.316Z,10.60
2017-11-30T11:36:57.857Z,14.90
2017-11-30T11:39:25.489Z,14.18
2017-11-30T11:41:53.528Z,13.57
2017-11-30T11:44:21.135Z,14.07
2017-11-30T11:46:48.710Z,12.20
2017-11-30T11:49:17.286Z,12.95
2017-11-30T11:51:44.948Z,11.55
2017-11-30T11:54:12.534Z,14.95
2017-11-30T11:56:40.135Z,14.63
2017-11-30T11:59:07.717Z,17.30
2017-11-30T12:01:35.324Z,14.90
2017-11-30T12:04:02.919Z,13.80
2017-11-30T12:06:30.513Z,16.10
2017-11-30T12:08:58.100Z,14.55
2017-11-30T12:11:25.689Z,16.45
2017-11-30T12:13:53.335Z,15.98
2017-11-30T12:16:21.684Z,18.48
2017-11-30T12:18:49.368Z,15.07
2017-11-30T12:21:17.842Z,20.92
2017-11-30T12:23:45.460Z,12.32
2017-11-30T12:26:13.104Z,14.85
2017-11-30T12:28:41.649Z,15.98
2017-11-30T12:31:09.380Z,14.68
2017-11-30T12:33:37.820Z,18.48
2017-11-30T12:36:06.479Z,11.25
2017-11-30T12:38:34.192Z,15.43
2017-11-30T12:41:02.691Z,19.37
2017-11-30T12:43:31.097Z,16.25
2017-11-30T12:45:58.736Z,12.90
2017-11-30T12:48:27.011Z,12.18
2017-11-30T12:50:55.456Z,15.30
2017-11-30T12:53:23.111Z,11.27
2017-11-30T12:55:50.795Z,16.62
2017-11-30T12:58:18.404Z,15.07
2017-11-30T13:00:46.815Z,12.07
2017-11-30T13:03:14.413Z,11.80
2017-11-30T13:05:42.019Z,16.73
2017-11-30T13:08:10.535Z,13.13
2017-11-30T13:10:38.108Z,11.40
2017-11-30T13:13:05.703Z,12.85
2017-11-30T13:15:33.288Z,11.27
2017-11-30T13:18:01.629Z,11.98
2017-11-30T13:20:29.186Z,14.45
2017-11-30T13:22:56.771Z,13.15
2017-11-30T13:25:24.392Z,13.73
2017-11-30T13:27:52.003Z,15.60
2017-11-30T13:30:19.585Z,16.77
2017-11-30T13:32:47.180Z,12.85
2017-11-30T13:35:14.742Z,10.77
2017-11-30T13:37:43.070Z,11.80
2017-11-30T13:40:10.687Z,14.70
2017-11-30T13:42:39.012Z,12.60
2017-11-30T13:45:06.566Z,14.40
2017-11-30T13:47:34.113Z,12.35
2017-11-30T13:50:01.694Z,11.30
2017-11-30T13:52:29.246Z,12.65
2017-11-30T13:54:56.795Z,13.20
2017-11-30T13:57:25.144Z,11.48
2017-11-30T13:59:52.706Z,13.98
2017-11-30T14:02:21.287Z,10.60
2017-11-30T14:04:48.874Z,12.70
2017-11-30T14:07:17.207Z,11.70
2017-11-30T14:09:44.794Z,11.38
2017-11-30T14:12:12.388Z,11.35
2017-11-30T14:14:40.586Z,12.05
2017-11-30T14:17:08.193Z,13.55
2017-11-30T14:19:35.772Z,11.10
2017-11-30T14:22:03.336Z,11.80
2017-11-30T14:24:30.944Z,11.12
2017-11-30T14:26:59.286Z,10.60
2017-11-30T14:29:26.879Z,10.27
2017-11-30T14:31:55.223Z,12.82
2017-11-30T14:34:22.788Z,13.05
2017-11-30T14:36:50.370Z,12.05
2017-11-30T14:39:17.978Z,18.37
2017-11-30T14:41:46.310Z,14.60
2017-11-30T14:44:13.980Z,15.25
2017-11-30T14:46:41.542Z,12.45
2017-11-30T14:49:09.140Z,13.02
2017-11-30T14:51:36.816Z,11.93
2017-11-30T14:54:05.112Z,13.23
2017-11-30T14:56:32.741Z,12.68
2017-11-30T14:59:01.193Z,12.52
2017-11-30T15:01:28.825Z,12.32
2017-11-30T15:03:56.388Z,13.40
2017-11-30T15:06:23.984Z,18.62
2017-11-30T15:08:51.592Z,12.32
2017-11-30T15:11:19.135Z,10.95
2017-11-30T15:13:46.751Z,13.00
2017-11-30T15:16:15.150Z,13.23
2017-11-30T15:18:43.517Z,12.85
2017-11-30T15:21:11.163Z,13.77
2017-11-30T15:23:39.543Z,12.20
2017-11-30T15:26:07.574Z,15.23
2017-11-30T15:28:35.146Z,14.02
2017-11-30T15:31:02.746Z,13.00
2017-11-30T15:33:31.131Z,15.05
2017-11-30T15:35:58.671Z,15.82
2017-11-30T15:38:26.275Z,13.77
2017-11-30T15:40:54.656Z,18.62
2017-11-30T15:43:23.033Z,10.82
2017-11-30T15:45:51.359Z,16.75
2017-11-30T15:48:18.937Z,12.20
2017-11-30T15:50:46.597Z,15.50
2017-11-30T15:53:14.200Z,14.32
2017-11-30T15:55:42.586Z,14.52
2017-11-30T15:58:10.204Z,15.90
2017-11-30T16:00:37.752Z,16.17
2017-11-30T16:03:06.334Z,13.62
2017-11-30T16:05:33.907Z,13.10
2017-11-30T16:08:01.488Z,14.02
2017-11-30T16:10:29.037Z,12.35
2017-11-30T16:12:56.630Z,13.80
2017-11-30T16:15:24.208Z,10.85
2017-11-30T16:17:51.804Z,10.60
2017-11-30T16:20:19.398Z,13.30
2017-11-30T16:22:46.939Z,15.10
2017-11-30T16:25:15.343Z,12.37
2017-11-30T16:27:42.970Z,12.50
2017-11-30T16:30:10.512Z,11.88
2017-11-30T16:32:39.133Z,11.68
2017-11-30T16:35:06.724Z,14.07
2017-11-30T16:37:34.302Z,15.65
2017-11-30T16:40:01.891Z,13.65
2017-11-30T16:42:29.472Z,14.55
2017-11-30T16:44:57.073Z,13.02
2017-11-30T16:47:25.387Z,13.82
2017-11-30T16:49:52.968Z,15.25
2017-11-30T16:52:20.628Z,12.00
2017-11-30T16:54:48.206Z,12.02
2017-11-30T16:57:15.827Z,17.33
2017-11-30T16:59:43.495Z,14.05
2017-11-30T17:02:11.085Z,12.82
2017-11-30T17:04:38.671Z,13.73
2017-11-30T17:07:06.258Z,12.50
2017-11-30T17:09:33.852Z,13.43
2017-11-30T17:12:02.240Z,19.08
2017-11-30T17:14:29.849Z,14.25
2017-11-30T17:16:57.423Z,13.88
2017-11-30T17:19:26.049Z,13.68
2017-11-30T17:21:54.493Z,16.40
2017-11-30T17:24:22.106Z,13.77
2017-11-30T17:26:50.526Z,15.38
2017-11-30T17:29:18.073Z,14.93
2017-11-30T17:31:45.651Z,14.48
2017-11-30T17:34:13.269Z,13.85
2017-11-30T17:36:40.870Z,13.75
2017-11-30T17:39:08.470Z,13.95
2017-11-30T17:41:36.063Z,13.80
2017-11-30T17:44:04.367Z,13.55
2017-11-30T17:46:31.953Z,13.55
2017-11-30T17:48:59.528Z,11.10
2017-11-30T17:51:27.174Z,13.02
2017-11-30T17:53:54.766Z,16.35
2017-11-30T17:56:22.349Z,13.48
2017-11-30T17:58:49.914Z,15.45
2017-11-30T18:01:17.461Z,13.70
2017-11-30T18:03:45.046Z,15.82
2017-11-30T18:06:12.761Z,13.68
2017-11-30T18:08:41.102Z,14.70
2017-11-30T18:11:08.644Z,16.85
2017-11-30T18:13:36.218Z,15.00
2017-11-30T18:16:03.777Z,15.82
2017-11-30T18:18:31.374Z,15.68
2017-11-30T18:20:59.728Z,16.23
2017-11-30T18:23:27.307Z,15.27
2017-11-30T18:25:54.853Z,12.85
2017-11-30T18:28:22.419Z,13.13
2017-11-30T18:30:50.016Z,13.48
2017-11-30T18:33:17.564Z,12.20
2017-11-30T18:35:45.126Z,13.52
2017-11-30T18:38:12.725Z,17.05
2017-11-30T18:40:40.302Z,12.45
2017-11-30T18:43:07.902Z,14.50
2017-11-30T18:45:35.471Z,14.20
2017-11-30T18:48:03.099Z,13.95
2017-11-30T18:50:31.433Z,16.70
2017-11-30T18:52:58.993Z,13.38
2017-11-30T18:55:26.610Z,17.02
2017-11-30T18:57:54.223Z,17.42
2017-11-30T19:00:21.811Z,15.35
2017-11-30T19:02:49.370Z,14.73
2017-11-30T19:05:16.960Z,13.57
2017-11-30T19:07:45.363Z,13.23
2017-11-30T19:10:12.953Z,15.50
2017-11-30T19:12:40.535Z,14.63
2017-11-30T19:15:08.324Z,13.48
2017-11-30T19:17:35.885Z,14.60
2017-11-30T19:20:03.572Z,11.63
2017-11-30T19:22:32.644Z,12.25
2017-11-30T19:25:00.206Z,11.75
2017-11-30T19:27:27.801Z,14.60
2017-11-30T19:29:56.158Z,15.45
2017-11-30T19:32:23.743Z,12.15
2017-11-30T19:34:51.340Z,13.60
2017-11-30T19:37:18.941Z,13.60
2017-11-30T19:39:46.493Z,11.68
2017-11-30T19:42:14.102Z,13.15
2017-11-30T19:44:41.647Z,13.50
2017-11-30T19:47:09.246Z,11.30
2017-11-30T19:49:37.628Z,10.63
2017-11-30T19:52:05.975Z,11.38
2017-11-30T19:54:33.522Z,11.18
2017-11-30T19:57:01.094Z,11.50
2017-11-30T19:59:28.706Z,13.25
2017-11-30T20:01:56.252Z,11.80
2017-11-30T20:04:23.818Z,11.23
2017-11-30T20:06:52.183Z,11.25
2017-11-30T20:09:20.801Z,10.88
2017-11-30T20:11:49.125Z,9.48
2017-11-30T20:14:16.686Z,10.93
2017-11-30T20:16:44.231Z,9.00
2017-11-30T20:19:11.775Z,8.10
2017-11-30T20:21:40.162Z,8.48
2017-11-30T20:24:08.747Z,9.40
2017-11-30T20:26:37.115Z,8.95
2017-11-30T20:29:04.955Z,11.18
2017-11-30T20:31:33.484Z,14.70
2017-11-30T20:34:01.089Z,20.00
2017-11-30T20:36:28.665Z,12.43
2017-11-30T20:38:56.231Z,8.75
2017-11-30T20:41:23.915Z,15.77
2017-11-30T20:43:51.617Z,9.75
2017-11-30T20:46:19.927Z,12.75
2017-11-30T20:48:47.507Z,11.60
2017-11-30T20:51:15.077Z,10.18
2017-11-30T20:53:42.647Z,9.50
2017-11-30T20:56:13.766Z,11.12
2017-11-30T20:58:41.330Z,12.10
2017-11-30T21:01:08.898Z,10.52
2017-11-30T21:03:36.492Z,9.07
2017-11-30T21:06:04.114Z,11.73
2017-11-30T21:08:32.456Z,9.77
2017-11-30T21:11:00.008Z,9.63
2017-11-30T21:13:27.588Z,7.87
2017-11-30T21:15:55.166Z,14.00
2017-11-30T21:18:22.741Z,8.98
2017-11-30T21:20:51.083Z,7.45
2017-11-30T21:23:18.625Z,9.90
2017-11-30T21:25:46.239Z,9.43
2017-11-30T21:28:13.837Z,9.73
2017-11-30T21:30:41.432Z,8.80
2017-11-30T21:33:09.039Z,8.35
2017-11-30T21:35:36.618Z,9.95
2017-11-30T21:38:04.973Z,7.65
2017-11-30T21:40:33.260Z,9.93
2017-11-30T21:43:00.917Z,7.05
2017-11-30T21:45:28.462Z,9.05
2017-11-30T21:47:56.037Z,8.68
2017-11-30T21:50:24.382Z,6.90
2017-11-30T21:52:51.955Z,9.93
2017-11-30T21:55:19.518Z,8.40
2017-11-30T21:57:47.104Z,7.47
2017-11-30T22:00:14.639Z,8.57
2017-11-30T22:02:43.175Z,6.32
2017-11-30T22:05:11.573Z,6.68
2017-11-30T22:07:39.154Z,9.05
2017-11-30T22:10:06.716Z,7.57
2017-11-30T22:12:35.070Z,6.00
2017-11-30T22:15:02.656Z,5.85
2017-11-30T22:17:30.208Z,6.45
2017-11-30T22:19:57.809Z,7.90
2017-11-30T22:22:26.188Z,8.82
2017-11-30T22:24:54.517Z,5.30
2017-11-30T22:27:22.106Z,5.60
2017-11-30T22:29:49.668Z,5.00
2017-11-30T22:32:17.255Z,5.00
2017-11-30T22:34:46.066Z,5.40
2017-11-30T22:37:15.053Z,4.22
2017-11-30T22:39:42.758Z,7.37
2017-11-30T22:42:10.360Z,4.25
2017-11-30T22:44:40.087Z,5.53
2017-11-30T22:47:09.374Z,8.30
2017-11-30T22:49:43.430Z,11.10
2017-11-30T22:52:11.145Z,9.73
2017-11-30T22:54:38.773Z,5.12
2017-11-30T22:57:07.196Z,4.90
2017-11-30T22:59:34.898Z,4.90
2017-11-30T23:02:03.328Z,3.92
2017-11-30T23:04:30.997Z,3.85
2017-11-30T23:06:58.652Z,3.92
2017-11-30T23:09:26.400Z,4.60
2017-11-30T23:11:54.756Z,6.53
2017-11-30T23:14:24.264Z,3.80
2017-11-30T23:16:51.854Z,4.90
2017-11-30T23:19:20.278Z,4.70
2017-11-30T23:21:47.884Z,8.25
2017-11-30T23:24:15.592Z,4.20
2017-11-30T23:26:43.205Z,6.47
2017-11-30T23:29:11.021Z,5.55
2017-11-30T23:31:38.694Z,4.45
2017-11-30T23:34:06.250Z,4.82
2017-11-30T23:36:34.641Z,5.90
2017-11-30T23:39:02.273Z,4.47
2017-11-30T23:41:30.785Z,4.05
2017-11-30T23:43:58.444Z,4.55
2017-11-30T23:46:26.096Z,6.50
2017-11-30T23:48:54.588Z,4.87
2017-11-30T23:51:22.256Z,6.12
2017-11-30T23:53:50.364Z,4.43
2017-11-30T23:56:18.127Z,4.28
2017-11-30T23:58:47.761Z,4.70
